createdAt,value
2023-05-05T00:01:57.931Z,70.17
2023-05-05T00:06:59.606Z,69.19
2023-05-05T00:12:01.428Z,68.92
2023-05-05T00:17:04.274Z,68.04
2023-05-05T00:22:06.018Z,68.21
2023-05-05T00:27:07.679Z,67.57
2023-05-05T00:32:09.303Z,67.60
2023-05-05T00:37:11.228Z,67.40
2023-05-05T00:42:13.273Z,67.25
2023-05-05T00:47:16.768Z,68.24
2023-05-05T00:52:18.429Z,69.03
2023-05-05T00:57:20.553Z,68.95
2023-05-05T01:02:23.206Z,68.83
2023-05-05T01:07:24.851Z,68.20
2023-05-05T01:12:29.552Z,68.17
2023-05-05T01:17:39.793Z,67.97
2023-05-05T01:22:51.435Z,68.10
2023-05-05T01:28:16.098Z,68.85
2023-05-05T01:33:20.648Z,69.62
2023-05-05T01:38:29.327Z,69.78
2023-05-05T01:43:32.110Z,70.04
2023-05-05T01:48:33.927Z,70.12
2023-05-05T01:53:36.531Z,70.81
2023-05-05T01:58:38.247Z,69.98
2023-05-05T02:03:40.265Z,69.46
2023-05-05T02:08:42.554Z,70.06
2023-05-05T02:13:44.549Z,69.90
2023-05-05T02:18:50.557Z,70.47
2023-05-05T02:23:52.624Z,70.76
2023-05-05T02:29:03.276Z,70.58
2023-05-05T02:34:06.169Z,70.37
2023-05-05T02:39:22.318Z,71.10
2023-05-05T02:44:24.989Z,70.59
2023-05-05T02:49:27.701Z,70.91
2023-05-05T02:54:34.074Z,71.16
2023-05-05T02:59:47.487Z,70.55
2023-05-05T03:05:10.409Z,70.28
2023-05-05T03:10:20.400Z,70.14
2023-05-05T03:15:29.220Z,70.70
2023-05-05T03:20:31.238Z,70.60
2023-05-05T03:25:48.387Z,70.92
2023-05-05T03:31:03.947Z,71.56
2023-05-05T03:36:08.158Z,71.46
2023-05-05T03:41:10.222Z,71.68
2023-05-05T03:46:12.038Z,70.89
2023-05-05T03:51:15.072Z,70.64
2023-05-05T03:56:16.805Z,70.48
2023-05-05T04:01:18.506Z,70.17
2023-05-05T04:06:21.270Z,70.13
2023-05-05T04:11:23.026Z,69.91
2023-05-05T04:16:26.142Z,69.57
2023-05-05T04:21:28.275Z,70.30
2023-05-05T04:26:30.747Z,70.41
2023-05-05T04:31:32.728Z,69.95
2023-05-05T04:36:34.891Z,69.83
2023-05-05T04:41:36.925Z,69.79
2023-05-05T04:46:38.937Z,69.84
2023-05-05T04:51:43.881Z,69.59
2023-05-05T04:56:45.654Z,68.64
2023-05-05T05:01:47.341Z,68.50
2023-05-05T05:06:48.972Z,67.63
2023-05-05T05:11:50.656Z,68.35
2023-05-05T05:16:52.579Z,68.08
2023-05-05T05:21:56.629Z,66.95
2023-05-05T05:26:58.755Z,66.15
2023-05-05T05:32:00.876Z,63.47
2023-05-05T05:37:02.819Z,59.43
2023-05-05T05:42:04.755Z,56.89
2023-05-05T05:47:06.942Z,53.75
2023-05-05T05:52:08.722Z,54.70
2023-05-05T05:57:10.524Z,55.12
2023-05-05T06:02:13.225Z,57.66
2023-05-05T06:07:15.094Z,57.42
2023-05-05T06:12:17.047Z,52.53
2023-05-05T06:17:18.812Z,52.85
2023-05-05T06:22:20.929Z,54.19
2023-05-05T06:27:23.572Z,51.76
2023-05-05T06:32:25.344Z,52.15
2023-05-05T06:37:27.098Z,51.89
2023-05-05T06:42:30.837Z,50.77
2023-05-05T06:47:33.990Z,50.02
2023-05-05T06:52:35.758Z,49.43
2023-05-05T06:57:37.359Z,50.82
2023-05-05T07:02:39.837Z,50.39
2023-05-05T07:07:53.672Z,48.12
2023-05-05T07:12:55.608Z,47.20
2023-05-05T07:17:57.777Z,47.66
2023-05-05T07:22:59.700Z,46.64
2023-05-05T07:28:01.487Z,45.96
2023-05-05T07:33:03.680Z,44.64
2023-05-05T07:38:05.435Z,45.86
2023-05-05T07:43:07.179Z,45.63
2023-05-05T07:48:08.908Z,43.41
2023-05-05T07:53:14.975Z,41.97
2023-05-05T07:58:17.082Z,41.65
2023-05-05T08:03:21.700Z,43.06
2023-05-05T08:08:27.366Z,42.78
2023-05-05T08:13:30.255Z,44.34
2023-05-05T08:18:31.905Z,42.24
2023-05-05T08:23:34.527Z,43.29
2023-05-05T08:28:36.835Z,42.92
2023-05-05T08:33:38.486Z,43.06
2023-05-05T08:38:40.182Z,42.06
2023-05-05T08:43:44.534Z,40.33
2023-05-05T08:48:46.309Z,38.66
2023-05-05T08:53:54.021Z,38.13
2023-05-05T08:58:56.555Z,38.70
2023-05-05T09:03:59.395Z,37.28
2023-05-05T09:09:01.442Z,37.12
2023-05-05T09:14:03.139Z,35.90
2023-05-05T09:19:05.143Z,34.57
2023-05-05T09:24:11.346Z,35.42
2023-05-05T09:29:23.136Z,33.98
2023-05-05T09:34:24.780Z,35.11
2023-05-05T09:39:26.509Z,34.13
2023-05-05T09:44:35.893Z,34.21
2023-05-05T09:49:37.968Z,36.51
2023-05-05T09:54:39.619Z,35.88
2023-05-05T09:59:54.722Z,36.20
2023-05-05T10:05:04.651Z,36.70
2023-05-05T10:10:26.055Z,35.18
2023-05-05T10:15:29.120Z,36.25
2023-05-05T10:20:31.387Z,34.80
2023-05-05T10:25:39.603Z,35.39
2023-05-05T10:30:43.490Z,35.27
2023-05-05T10:35:46.806Z,34.43
2023-05-05T10:40:48.855Z,32.97
2023-05-05T10:45:50.843Z,30.72
2023-05-05T10:50:58.482Z,32.48
2023-05-05T10:56:11.211Z,32.66
2023-05-05T11:01:28.444Z,32.40
2023-05-05T11:06:31.240Z,32.32
2023-05-05T11:12:07.137Z,32.52
2023-05-05T11:17:44.030Z,32.23
2023-05-05T11:23:03.897Z,31.74
2023-05-05T11:28:56.712Z,31.93
2023-05-05T11:34:29.456Z,31.63
2023-05-05T11:39:56.065Z,32.04
2023-05-05T11:44:57.875Z,32.31
2023-05-05T11:50:00.892Z,32.34
2023-05-05T11:55:03.731Z,32.52
2023-05-05T12:00:10.392Z,31.93
2023-05-05T12:05:19.319Z,32.57
2023-05-05T12:10:23.994Z,30.98
2023-05-05T12:15:30.377Z,32.56
2023-05-05T12:20:33.056Z,32.23
2023-05-05T12:25:36.895Z,31.51
2023-05-05T12:30:38.636Z,32.42
2023-05-05T12:35:41.460Z,31.36
2023-05-05T12:40:51.726Z,31.70
2023-05-05T12:46:12.906Z,31.36
2023-05-05T12:51:16.820Z,30.45
2023-05-05T12:56:36.510Z,30.60
2023-05-05T13:01:52.036Z,29.77
2023-05-05T13:07:14.139Z,31.26
2023-05-05T13:12:17.790Z,31.76
2023-05-05T13:17:19.420Z,30.60
2023-05-05T13:22:21.246Z,29.86
2023-05-05T13:27:23.691Z,29.29
2023-05-05T13:32:25.571Z,30.65
2023-05-05T13:37:27.736Z,30.15
2023-05-05T13:42:29.459Z,30.71
2023-05-05T13:47:31.264Z,29.25
2023-05-05T13:52:33.565Z,28.58
2023-05-05T13:57:35.421Z,28.35
2023-05-05T14:02:37.110Z,28.25
2023-05-05T14:07:38.787Z,29.10
2023-05-05T14:12:40.496Z,30.44
2023-05-05T14:17:42.602Z,30.92
2023-05-05T14:22:44.380Z,30.10
2023-05-05T14:27:45.994Z,31.19
2023-05-05T14:32:47.742Z,30.37
2023-05-05T14:37:49.491Z,31.14
2023-05-05T14:42:51.157Z,31.54
2023-05-05T14:47:52.865Z,31.16
2023-05-05T14:52:54.538Z,31.34
2023-05-05T14:57:56.159Z,30.53
2023-05-05T15:02:58.016Z,32.70
2023-05-05T15:07:59.768Z,32.12
2023-05-05T15:13:01.596Z,32.49
2023-05-05T15:18:03.864Z,33.02
2023-05-05T15:23:05.631Z,32.51
2023-05-05T15:28:07.299Z,31.59
2023-05-05T15:33:09.034Z,32.19
2023-05-05T15:38:10.910Z,32.19
2023-05-05T15:43:12.622Z,31.57
2023-05-05T15:48:14.335Z,32.79
2023-05-05T15:53:16.540Z,32.65
2023-05-05T15:58:18.257Z,32.76
2023-05-05T16:03:20.172Z,32.53
2023-05-05T16:08:22.125Z,31.85
2023-05-05T16:13:23.769Z,32.16
2023-05-05T16:18:25.653Z,31.99
2023-05-05T16:23:27.309Z,32.26
2023-05-05T16:28:29.021Z,32.99
2023-05-05T16:33:31.015Z,32.31
2023-05-05T16:38:32.749Z,32.55
2023-05-05T16:43:35.215Z,32.23
2023-05-05T16:48:36.901Z,32.00
2023-05-05T16:53:39.996Z,33.05
2023-05-05T16:58:41.728Z,33.43
2023-05-05T17:03:43.445Z,34.04
2023-05-05T17:08:45.115Z,33.45
2023-05-05T17:13:46.796Z,34.20
2023-05-05T17:18:48.969Z,33.68
2023-05-05T17:23:50.754Z,33.88
2023-05-05T17:28:52.469Z,34.52
2023-05-05T17:33:54.120Z,34.89
2023-05-05T17:38:55.996Z,35.08
2023-05-05T17:43:59.345Z,35.75
2023-05-05T17:49:01.143Z,35.99
2023-05-05T17:54:02.855Z,36.37
2023-05-05T17:59:04.560Z,36.57
2023-05-05T18:04:06.285Z,37.09
2023-05-05T18:09:09.810Z,37.30
2023-05-05T18:14:12.764Z,38.74
2023-05-05T18:19:14.744Z,41.17
2023-05-05T18:24:20.355Z,42.66
2023-05-05T18:29:22.393Z,43.17
2023-05-05T18:34:24.010Z,44.22
2023-05-05T18:39:25.680Z,44.34
2023-05-05T18:44:27.378Z,44.76
2023-05-05T18:49:31.142Z,45.42
2023-05-05T18:54:33.498Z,45.48
2023-05-05T18:59:35.911Z,45.12
2023-05-05T19:04:38.081Z,45.25
2023-05-05T19:09:40.063Z,45.71
2023-05-05T19:14:41.780Z,45.81
2023-05-05T19:19:43.698Z,46.12
2023-05-05T19:24:45.486Z,46.32
2023-05-05T19:29:52.146Z,46.38
2023-05-05T19:34:54.490Z,46.50
2023-05-05T19:39:56.563Z,46.53
2023-05-05T19:44:58.261Z,46.43
2023-05-05T19:49:59.893Z,46.68
2023-05-05T19:55:01.772Z,46.85
2023-05-05T20:00:03.692Z,47.04
2023-05-05T20:05:06.421Z,47.19
2023-05-05T20:10:09.312Z,47.30
2023-05-05T20:15:11.526Z,47.65
2023-05-05T20:20:19.133Z,47.79
2023-05-05T20:25:20.822Z,48.06
2023-05-05T20:30:22.518Z,48.62
2023-05-05T20:35:24.180Z,48.84
2023-05-05T20:40:26.104Z,49.11
2023-05-05T20:45:27.871Z,49.05
2023-05-05T20:50:29.709Z,49.21
2023-05-05T20:55:31.337Z,49.45
2023-05-05T21:00:33.594Z,49.85
2023-05-05T21:05:35.994Z,49.75
2023-05-05T21:10:38.445Z,50.10
2023-05-05T21:15:40.278Z,50.10
2023-05-05T21:20:42.094Z,50.31
2023-05-05T21:25:43.740Z,50.64
2023-05-05T21:30:54.869Z,51.05
2023-05-05T21:36:06.633Z,51.42
2023-05-05T21:41:08.242Z,51.87
2023-05-05T21:46:10.010Z,52.28
2023-05-05T21:51:11.669Z,52.70
2023-05-05T21:56:13.445Z,53.40
2023-05-05T22:01:15.088Z,53.89
2023-05-05T22:06:17.380Z,54.36
2023-05-05T22:11:19.513Z,54.45
2023-05-05T22:16:21.143Z,54.93
2023-05-05T22:21:22.922Z,56.04
2023-05-05T22:26:24.753Z,56.32
2023-05-05T22:31:29.165Z,56.30
2023-05-05T22:36:31.529Z,56.97
2023-05-05T22:41:33.189Z,56.63
2023-05-05T22:46:34.851Z,57.22
2023-05-05T22:51:36.602Z,58.54
2023-05-05T22:56:38.256Z,61.16
2023-05-05T23:01:40.022Z,64.81
2023-05-05T23:06:41.848Z,68.92
2023-05-05T23:11:43.538Z,71.64
2023-05-05T23:16:46.053Z,73.40
2023-05-05T23:21:53.345Z,75.03
2023-05-05T23:26:58.206Z,78.31
2023-05-05T23:31:59.846Z,83.23
2023-05-05T23:37:02.513Z,87.17
2023-05-05T23:42:05.037Z,88.16
2023-05-05T23:47:06.661Z,87.45
2023-05-05T23:52:08.412Z,86.46
2023-05-05T23:57:10.086Z,89.65
